Estación Meteorológica Peña el Pijo (Robertgarden) [ 01/30/23 14:26:49 CET ]

Fecha Hora Presion(HPa) Temp (°C) Humedad % Rocio (°C) Viento ( m/s) Direccion Lluvia 1Hora(mm) Lluvia 24H(mm) LLuvia Total(mm)
2012-Jan-21 01:01:14 1019.900 -0.4 88 -2.1         151.25
2012-Jan-21 02:01:42 1019.600 -1.1 88 -2.8         151.25
2012-Jan-21 03:03:40 1019.500 -1.5 89 -3.1         151.25
2012-Jan-21 04:01:41 1019.100 -1.2 89 -2.8         151.25
2012-Jan-21 05:01:52 1018.300 -1.1 90 -2.5         151.25
2012-Jan-21 06:01:44 1018.100 -1.6 91 -2.9         151.25
2012-Jan-21 07:01:15 1018.500 -1.6 91 -2.9         151.25
2012-Jan-21 08:01:14 1018.600 -1.6 91 -2.9         151.25
2012-Jan-21 09:01:13 1018.700 -1.6 92 -2.7         151.25
2012-Jan-21 10:01:13 1019.000 1.3 93 0.2         151.25
2012-Jan-21 11:01:14 1018.600 5.9 79 2.5         151.25
2012-Jan-21 12:01:18 1018.000 10.2 61 3.0         151.25
2012-Jan-21 13:01:15 1017.000 12.8 46 1.4         151.25
2012-Jan-21 14:01:14 1016.200 13.8 44 1.7         151.25
2012-Jan-21 15:01:16 1015.700 14.4 38 0.2         151.25
2012-Jan-21 16:01:12 1015.600 14.1 38 -0.1         151.25
2012-Jan-21 17:01:16 1015.600 11.1 45 -0.5         151.25
2012-Jan-21 18:01:15 1015.900 9.2 51 -0.5         151.25
2012-Jan-21 19:01:18 1016.500 6.4 60 -0.8         151.25
2012-Jan-21 20:01:15 1016.800 3.4 68 -2.0         151.25
2012-Jan-21 21:01:17 1017.000 1.2 75 -2.8         151.25
2012-Jan-21 22:01:13 1017.100 0.1 80 -2.9         151.25
2012-Jan-21 23:01:14 1016.900 -0.5 82 -3.2         151.25

Temperatura Máxima:14°    Temperatura Mínima:-1°
Presión Máxima:1019.900 Hpa    Presión Mínima:1015.600 Hpa


Volver